createdAt,value
2022-10-01T00:01:19.622Z,22.10
2022-10-01T00:03:47.716Z,22.10
2022-10-01T00:06:20.399Z,22.10
2022-10-01T00:08:49.462Z,22.10
2022-10-01T00:11:22.145Z,22.10
2022-10-01T00:13:49.798Z,22.10
2022-10-01T00:16:20.247Z,22.10
2022-10-01T00:18:48.278Z,22.10
2022-10-01T00:21:17.905Z,22.10
2022-10-01T00:23:45.998Z,22.20
2022-10-01T00:26:16.930Z,22.10
2022-10-01T00:28:46.229Z,22.10
2022-10-01T00:31:14.402Z,22.10
2022-10-01T00:33:41.675Z,22.10
2022-10-01T00:36:09.857Z,22.10
2022-10-01T00:38:38.575Z,22.10
2022-10-01T00:41:06.459Z,22.10
2022-10-01T00:43:40.320Z,22.10
2022-10-01T00:46:23.128Z,22.10
2022-10-01T00:48:58.218Z,22.10
2022-10-01T00:51:32.592Z,22.10
2022-10-01T00:54:07.737Z,22.10
2022-10-01T00:56:34.516Z,22.00
2022-10-01T00:59:02.163Z,22.00
2022-10-01T01:01:28.946Z,22.00
2022-10-01T01:03:58.220Z,22.00
2022-10-01T01:06:25.065Z,22.10
2022-10-01T01:08:55.172Z,22.00
2022-10-01T01:11:40.031Z,22.10
2022-10-01T01:14:22.801Z,22.00
2022-10-01T01:17:02.542Z,22.10
2022-10-01T01:19:56.569Z,22.10
2022-10-01T01:22:26.687Z,22.10
2022-10-01T01:25:16.870Z,22.10
2022-10-01T01:28:01.836Z,22.10
2022-10-01T01:30:32.936Z,22.10
2022-10-01T01:33:13.369Z,22.10
2022-10-01T01:35:56.553Z,22.10
2022-10-01T01:38:28.553Z,22.10
2022-10-01T01:41:00.213Z,22.10
2022-10-01T01:43:33.306Z,22.10
2022-10-01T01:46:03.739Z,22.10
2022-10-01T01:48:31.959Z,22.10
2022-10-01T01:51:26.007Z,22.10
2022-10-01T01:53:54.358Z,22.00
2022-10-01T01:56:21.093Z,22.10
2022-10-01T01:58:48.002Z,22.10
2022-10-01T02:01:35.209Z,22.10
2022-10-01T02:04:25.391Z,22.10
2022-10-01T02:07:03.972Z,22.10
2022-10-01T02:09:47.063Z,22.10
2022-10-01T02:12:29.353Z,22.10
2022-10-01T02:15:08.493Z,22.10
2022-10-01T02:17:54.097Z,22.00
2022-10-01T02:20:33.026Z,22.10
2022-10-01T02:23:06.478Z,22.10
2022-10-01T02:25:42.226Z,22.10
2022-10-01T02:28:16.654Z,22.10
2022-10-01T02:30:46.778Z,22.10
2022-10-01T02:33:17.759Z,22.10
2022-10-01T02:35:46.833Z,22.00
2022-10-01T02:38:15.159Z,22.10
2022-10-01T02:40:44.991Z,22.00
2022-10-01T02:43:16.968Z,22.00
2022-10-01T02:45:47.954Z,22.00
2022-10-01T02:48:18.055Z,22.10
2022-10-01T02:50:53.391Z,22.10
2022-10-01T02:53:26.013Z,22.00
2022-10-01T02:55:53.884Z,22.00
2022-10-01T02:58:21.040Z,22.00
2022-10-01T03:00:47.832Z,22.00
2022-10-01T03:03:14.573Z,22.00
2022-10-01T03:05:41.433Z,22.00
2022-10-01T03:08:08.214Z,22.00
2022-10-01T03:10:35.345Z,22.00
2022-10-01T03:13:02.165Z,22.00
2022-10-01T03:15:29.255Z,22.00
2022-10-01T03:17:55.993Z,22.00
2022-10-01T03:20:22.865Z,22.00
2022-10-01T03:22:49.858Z,22.00
2022-10-01T03:25:17.109Z,22.00
2022-10-01T03:27:43.944Z,22.00
2022-10-01T03:30:11.756Z,22.00
2022-10-01T03:32:38.600Z,22.00
2022-10-01T03:35:05.775Z,22.00
2022-10-01T03:37:32.431Z,22.00
2022-10-01T03:39:59.087Z,22.00
2022-10-01T03:42:25.797Z,22.00
2022-10-01T03:44:52.995Z,22.00
2022-10-01T03:47:19.651Z,22.00
2022-10-01T03:49:46.290Z,22.00
2022-10-01T03:52:12.970Z,22.00
2022-10-01T03:54:39.653Z,22.00
2022-10-01T03:57:06.875Z,22.00
2022-10-01T03:59:33.597Z,22.00
2022-10-01T04:02:00.344Z,22.00
2022-10-01T04:04:28.929Z,22.00
2022-10-01T04:06:55.673Z,22.00
2022-10-01T04:09:22.404Z,22.00
2022-10-01T04:11:49.315Z,22.00
2022-10-01T04:14:16.048Z,22.00
2022-10-01T04:16:43.405Z,22.00
2022-10-01T04:19:10.076Z,22.00
2022-10-01T04:21:39.026Z,22.00
2022-10-01T04:24:05.957Z,22.00
2022-10-01T04:26:32.715Z,22.00
2022-10-01T04:28:59.430Z,22.00
2022-10-01T04:31:26.360Z,22.00
2022-10-01T04:33:54.879Z,22.00
2022-10-01T04:36:21.937Z,22.00
2022-10-01T04:38:51.872Z,22.00
2022-10-01T04:41:18.810Z,21.90
2022-10-01T04:43:45.745Z,21.90
2022-10-01T04:46:12.664Z,22.00
2022-10-01T04:48:39.369Z,22.00
2022-10-01T04:51:06.281Z,22.00
2022-10-01T04:53:32.948Z,22.00
2022-10-01T04:55:59.658Z,22.00
2022-10-01T04:58:26.893Z,22.00
2022-10-01T05:00:54.379Z,21.90
2022-10-01T05:03:23.157Z,21.90
2022-10-01T05:05:49.926Z,21.90
2022-10-01T05:08:16.811Z,21.90
2022-10-01T05:10:43.921Z,22.00
2022-10-01T05:13:11.036Z,22.00
2022-10-01T05:15:38.478Z,22.00
2022-10-01T05:18:05.208Z,22.00
2022-10-01T05:20:33.951Z,22.00
2022-10-01T05:23:00.632Z,22.00
2022-10-01T05:25:27.329Z,22.00
2022-10-01T05:27:59.951Z,22.00
2022-10-01T05:30:26.759Z,21.90
2022-10-01T05:32:55.864Z,21.90
2022-10-01T05:35:22.588Z,22.00
2022-10-01T05:37:53.266Z,21.90
2022-10-01T05:40:20.147Z,22.00
2022-10-01T05:42:47.519Z,22.00
2022-10-01T05:45:16.522Z,21.90
2022-10-01T05:47:44.725Z,22.00
2022-10-01T05:50:11.484Z,22.00
2022-10-01T05:52:38.482Z,22.00
2022-10-01T05:55:05.472Z,22.00
2022-10-01T05:57:32.192Z,21.90
2022-10-01T05:59:58.914Z,22.00
2022-10-01T06:02:25.768Z,22.00
2022-10-01T06:04:52.578Z,22.00
2022-10-01T06:07:19.573Z,22.00
2022-10-01T06:09:46.651Z,22.00
2022-10-01T06:12:17.719Z,22.00
2022-10-01T06:14:46.584Z,22.00
2022-10-01T06:17:13.253Z,22.00
2022-10-01T06:19:41.761Z,22.10
2022-10-01T06:22:09.778Z,22.10
2022-10-01T06:24:36.654Z,22.10
2022-10-01T06:27:05.064Z,22.10
2022-10-01T06:29:31.901Z,22.10
2022-10-01T06:31:58.796Z,22.20
2022-10-01T06:34:26.547Z,22.10
2022-10-01T06:36:53.518Z,22.10
2022-10-01T06:39:20.458Z,22.10
2022-10-01T06:41:48.149Z,22.10
2022-10-01T06:44:15.188Z,22.10
2022-10-01T06:46:41.874Z,22.10
2022-10-01T06:49:08.865Z,22.10
2022-10-01T06:51:54.197Z,22.10
2022-10-01T06:54:20.932Z,22.10
2022-10-01T06:56:47.698Z,22.10
2022-10-01T06:59:14.736Z,22.10
2022-10-01T07:01:41.535Z,22.10
2022-10-01T07:04:08.860Z,22.10
2022-10-01T07:06:35.594Z,22.10
2022-10-01T07:09:02.311Z,22.10
2022-10-01T07:11:29.040Z,22.10
2022-10-01T07:13:57.533Z,22.10
2022-10-01T07:16:24.353Z,22.00
2022-10-01T07:18:52.176Z,22.00
2022-10-01T07:21:18.880Z,22.10
2022-10-01T07:23:45.537Z,22.10
2022-10-01T07:26:12.346Z,22.10
2022-10-01T07:28:39.989Z,22.10
2022-10-01T07:31:11.243Z,22.10
2022-10-01T07:33:38.920Z,22.10
2022-10-01T07:36:08.792Z,22.10
2022-10-01T07:38:35.724Z,22.10
2022-10-01T07:41:03.405Z,22.10
2022-10-01T07:43:31.481Z,22.10
2022-10-01T07:46:00.199Z,22.00
2022-10-01T07:48:28.147Z,22.00
2022-10-01T07:50:55.938Z,22.00
2022-10-01T07:53:24.397Z,22.10
2022-10-01T07:55:51.113Z,22.10
2022-10-01T07:58:18.688Z,22.10
2022-10-01T08:00:45.675Z,22.00
2022-10-01T08:03:12.465Z,22.00
2022-10-01T08:05:43.212Z,22.00
2022-10-01T08:08:10.454Z,22.00
2022-10-01T08:10:38.849Z,22.00
2022-10-01T08:13:16.825Z,22.00
2022-10-01T08:15:50.538Z,22.00
2022-10-01T08:18:17.394Z,22.00
2022-10-01T08:20:44.707Z,22.00
2022-10-01T08:23:14.766Z,22.00
2022-10-01T08:25:43.643Z,22.00
2022-10-01T08:28:11.613Z,22.00
2022-10-01T08:30:40.803Z,22.00
2022-10-01T08:33:09.963Z,21.90
2022-10-01T08:35:40.302Z,22.00
2022-10-01T08:38:08.311Z,22.00
2022-10-01T08:40:41.257Z,22.00
2022-10-01T08:43:31.957Z,22.00
2022-10-01T08:46:06.590Z,22.00
2022-10-01T08:48:56.954Z,22.00
2022-10-01T08:51:28.128Z,22.00
2022-10-01T08:54:14.249Z,22.00
2022-10-01T08:56:46.399Z,22.00
2022-10-01T08:59:57.765Z,22.00
2022-10-01T09:02:29.490Z,22.00
2022-10-01T09:05:02.550Z,22.10
2022-10-01T09:07:56.388Z,22.20
2022-10-01T09:10:25.613Z,22.30
2022-10-01T09:13:23.192Z,22.30
2022-10-01T09:16:01.921Z,22.30
2022-10-01T09:18:31.449Z,22.30
2022-10-01T09:20:59.382Z,22.40
2022-10-01T09:23:39.967Z,22.30
2022-10-01T09:26:11.741Z,22.40
2022-10-01T09:28:40.589Z,22.40
2022-10-01T09:31:21.593Z,22.50
2022-10-01T09:34:10.788Z,22.50
2022-10-01T09:36:57.246Z,22.60
2022-10-01T09:39:39.153Z,22.60
2022-10-01T09:42:08.761Z,22.60
2022-10-01T09:44:41.102Z,22.70
2022-10-01T09:47:20.184Z,22.70
2022-10-01T09:49:49.349Z,22.70
2022-10-01T09:52:33.548Z,22.70
2022-10-01T09:55:18.902Z,22.70
2022-10-01T09:57:52.629Z,22.70
2022-10-01T10:00:21.856Z,22.80
2022-10-01T10:02:54.186Z,22.90
2022-10-01T10:05:22.824Z,22.90
2022-10-01T10:07:53.622Z,23.00
2022-10-01T10:10:27.935Z,23.00
2022-10-01T10:13:01.628Z,22.90
2022-10-01T10:15:32.516Z,22.90
2022-10-01T10:18:08.760Z,22.90
2022-10-01T10:20:44.098Z,22.80
2022-10-01T10:23:20.785Z,22.90
2022-10-01T10:26:03.549Z,22.80
2022-10-01T10:28:43.881Z,22.80
2022-10-01T10:31:15.975Z,22.80
2022-10-01T10:34:01.044Z,22.80
2022-10-01T10:36:32.683Z,22.80
2022-10-01T10:39:00.235Z,22.70
2022-10-01T10:41:29.493Z,22.80
2022-10-01T10:44:05.975Z,22.70
2022-10-01T10:46:35.634Z,22.70
2022-10-01T10:49:07.867Z,22.70
2022-10-01T10:51:54.054Z,22.70
2022-10-01T10:54:40.552Z,22.80
2022-10-01T10:57:28.059Z,22.70
2022-10-01T11:00:02.936Z,22.60
2022-10-01T11:02:32.758Z,22.60
2022-10-01T11:05:35.233Z,22.60
2022-10-01T11:08:14.227Z,22.60
2022-10-01T11:10:49.539Z,22.70
2022-10-01T11:13:39.321Z,22.70
2022-10-01T11:16:25.113Z,22.60
2022-10-01T11:19:41.933Z,22.60
2022-10-01T11:22:12.467Z,22.70
2022-10-01T11:25:05.052Z,22.70
2022-10-01T11:27:36.807Z,22.70
2022-10-01T11:30:09.789Z,22.70
2022-10-01T11:33:14.002Z,22.70
2022-10-01T11:35:47.203Z,22.70
2022-10-01T11:38:30.601Z,22.70
2022-10-01T11:41:00.921Z,22.80
2022-10-01T11:43:42.459Z,22.80
2022-10-01T11:46:20.120Z,22.90
2022-10-01T11:49:02.382Z,22.90
2022-10-01T11:51:43.726Z,22.90
2022-10-01T11:54:21.886Z,22.80
2022-10-01T11:57:11.828Z,22.90
2022-10-01T11:59:52.048Z,22.90
2022-10-01T12:02:40.576Z,22.90
2022-10-01T12:05:25.747Z,22.90
2022-10-01T12:08:24.271Z,22.90
2022-10-01T12:10:55.480Z,22.90
2022-10-01T12:13:34.361Z,22.90
2022-10-01T12:16:32.195Z,23.00
2022-10-01T12:19:13.613Z,23.00
2022-10-01T12:22:06.851Z,23.00
2022-10-01T12:24:45.094Z,23.00
2022-10-01T12:27:33.561Z,22.90
2022-10-01T12:30:20.359Z,23.00
2022-10-01T12:33:20.413Z,22.90
2022-10-01T12:36:03.158Z,22.90
2022-10-01T12:38:56.410Z,22.80
2022-10-01T12:41:34.739Z,22.80
2022-10-01T12:44:17.836Z,22.80
2022-10-01T12:47:06.247Z,22.80
2022-10-01T12:49:59.458Z,22.90
2022-10-01T12:52:48.160Z,22.90
2022-10-01T12:55:35.785Z,22.90
2022-10-01T12:58:15.351Z,22.90
2022-10-01T13:00:53.974Z,22.90
2022-10-01T13:03:29.902Z,22.90
2022-10-01T13:06:18.922Z,22.90
2022-10-01T13:08:55.441Z,22.90
2022-10-01T13:11:49.368Z,22.80
2022-10-01T13:14:18.131Z,22.90
2022-10-01T13:17:21.418Z,22.80
2022-10-01T13:20:23.860Z,22.80
2022-10-01T13:23:07.538Z,22.80
2022-10-01T13:25:41.712Z,22.80
2022-10-01T13:28:21.684Z,22.70
2022-10-01T13:31:00.478Z,22.70
2022-10-01T13:33:38.059Z,22.80
2022-10-01T13:36:09.425Z,22.80
2022-10-01T13:38:40.299Z,22.70
2022-10-01T13:41:29.506Z,22.80
2022-10-01T13:44:01.696Z,22.70
2022-10-01T13:46:42.893Z,22.70
2022-10-01T13:49:31.525Z,22.70
2022-10-01T13:51:59.285Z,22.70
2022-10-01T13:54:36.662Z,22.70
2022-10-01T13:57:11.101Z,22.70
2022-10-01T13:59:38.801Z,22.70
2022-10-01T14:02:29.430Z,22.70
2022-10-01T14:05:03.846Z,22.60
2022-10-01T14:07:35.890Z,22.60
2022-10-01T14:10:03.599Z,22.70
2022-10-01T14:12:52.409Z,22.70
2022-10-01T14:15:44.236Z,22.60
2022-10-01T14:18:19.554Z,22.60
2022-10-01T14:21:02.972Z,22.60
2022-10-01T14:23:35.745Z,22.60
2022-10-01T14:26:26.665Z,22.60
2022-10-01T14:29:07.040Z,22.60
2022-10-01T14:32:21.083Z,22.60
2022-10-01T14:35:23.780Z,22.60
2022-10-01T14:38:01.720Z,22.60
2022-10-01T14:40:41.213Z,22.60
2022-10-01T14:43:17.229Z,22.70
2022-10-01T14:45:51.262Z,22.70
2022-10-01T14:48:17.984Z,22.70
2022-10-01T14:50:49.693Z,22.70
2022-10-01T14:53:18.946Z,22.70
2022-10-01T14:55:48.170Z,22.70
2022-10-01T14:58:37.501Z,22.60
2022-10-01T15:01:05.832Z,22.70
2022-10-01T15:03:40.562Z,22.70
2022-10-01T15:06:16.746Z,22.70
2022-10-01T15:08:47.237Z,22.70
2022-10-01T15:11:23.557Z,22.70
2022-10-01T15:13:53.005Z,22.70
2022-10-01T15:16:27.388Z,22.80
2022-10-01T15:18:59.258Z,22.80
2022-10-01T15:22:02.251Z,22.80
2022-10-01T15:24:41.789Z,22.80
2022-10-01T15:27:14.951Z,22.70
2022-10-01T15:29:43.182Z,22.80
2022-10-01T15:32:18.667Z,22.80
2022-10-01T15:34:53.846Z,22.70
2022-10-01T15:37:36.279Z,22.70
2022-10-01T15:40:06.097Z,22.80
2022-10-01T15:42:37.478Z,22.80
2022-10-01T15:45:08.328Z,22.80
2022-10-01T15:48:12.256Z,22.80
2022-10-01T15:50:57.394Z,22.80
2022-10-01T15:53:24.109Z,22.80
2022-10-01T15:55:53.227Z,22.80
2022-10-01T15:58:21.605Z,22.80
2022-10-01T16:00:51.441Z,22.80
2022-10-01T16:03:23.693Z,22.80
2022-10-01T16:05:55.277Z,22.80
2022-10-01T16:08:34.446Z,22.80
2022-10-01T16:11:13.828Z,22.80
2022-10-01T16:13:44.944Z,22.80
2022-10-01T16:16:15.489Z,22.80
2022-10-01T16:18:43.018Z,22.80
2022-10-01T16:21:11.509Z,22.80
2022-10-01T16:23:48.068Z,22.80
2022-10-01T16:26:27.244Z,22.80
2022-10-01T16:28:57.358Z,22.80
2022-10-01T16:31:27.288Z,22.80
2022-10-01T16:33:54.039Z,22.80
2022-10-01T16:36:24.038Z,22.80
2022-10-01T16:38:51.440Z,22.80
2022-10-01T16:41:24.611Z,22.80
2022-10-01T16:43:53.682Z,22.70
2022-10-01T16:46:20.534Z,22.80
2022-10-01T16:48:51.699Z,22.80
2022-10-01T16:51:19.466Z,22.70
2022-10-01T16:53:47.062Z,22.70
2022-10-01T16:56:16.757Z,22.80
2022-10-01T16:58:49.176Z,22.80
2022-10-01T17:01:15.988Z,22.80
2022-10-01T17:03:42.755Z,22.80
2022-10-01T17:06:09.751Z,22.70
2022-10-01T17:08:36.924Z,22.80
2022-10-01T17:11:08.529Z,22.80
2022-10-01T17:13:38.919Z,22.80
2022-10-01T17:16:06.455Z,22.70
2022-10-01T17:18:33.306Z,22.80
2022-10-01T17:21:04.082Z,22.70
2022-10-01T17:23:31.732Z,22.70
2022-10-01T17:25:59.376Z,22.70
2022-10-01T17:28:27.142Z,22.70
2022-10-01T17:30:54.409Z,22.80
2022-10-01T17:33:21.944Z,22.70
2022-10-01T17:35:51.947Z,22.70
2022-10-01T17:38:19.733Z,22.80
2022-10-01T17:40:51.815Z,22.80
2022-10-01T17:43:24.474Z,22.80
2022-10-01T17:45:59.188Z,22.80
2022-10-01T17:48:27.422Z,22.80
2022-10-01T17:51:01.503Z,22.90
2022-10-01T17:53:33.506Z,23.00
2022-10-01T17:56:07.602Z,23.00
2022-10-01T17:58:35.347Z,23.00
2022-10-01T18:01:02.653Z,23.10
2022-10-01T18:03:29.473Z,23.00
2022-10-01T18:06:05.468Z,23.00
2022-10-01T18:08:51.259Z,23.00
2022-10-01T18:11:28.204Z,22.90
2022-10-01T18:14:08.453Z,22.80
2022-10-01T18:16:40.284Z,22.90
2022-10-01T18:22:15.078Z,22.90
2022-10-01T18:24:45.921Z,22.80
2022-10-01T18:27:13.136Z,22.80
2022-10-01T18:29:47.841Z,22.80
2022-10-01T18:32:32.523Z,22.80
2022-10-01T18:35:01.826Z,22.80
2022-10-01T18:37:40.468Z,22.80
2022-10-01T18:40:10.198Z,22.80
2022-10-01T18:42:51.758Z,22.80
2022-10-01T18:45:42.921Z,22.70
2022-10-01T18:48:37.476Z,22.70
2022-10-01T18:51:34.890Z,22.70
2022-10-01T18:54:26.848Z,22.70
2022-10-01T18:57:11.865Z,22.70
2022-10-01T19:00:08.563Z,22.70
2022-10-01T19:02:49.452Z,22.70
2022-10-01T19:05:16.971Z,22.70
2022-10-01T19:07:52.925Z,22.70
2022-10-01T19:10:48.562Z,22.70
2022-10-01T19:13:33.260Z,22.70
2022-10-01T19:16:19.461Z,22.70
2022-10-01T19:18:48.912Z,22.70
2022-10-01T19:21:32.519Z,22.70
2022-10-01T19:24:34.938Z,22.70
2022-10-01T19:27:01.653Z,22.70
2022-10-01T19:29:44.323Z,22.70
2022-10-01T19:32:17.359Z,22.70
2022-10-01T19:34:53.054Z,22.70
2022-10-01T19:37:38.370Z,22.70
2022-10-01T19:40:18.490Z,22.70
2022-10-01T19:43:20.121Z,22.60
2022-10-01T19:46:19.139Z,22.60
2022-10-01T19:49:06.439Z,22.70
2022-10-01T19:51:57.855Z,22.70
2022-10-01T19:54:37.372Z,22.70
2022-10-01T19:57:15.335Z,22.60
2022-10-01T19:59:42.065Z,22.60
2022-10-01T20:02:32.072Z,22.60
2022-10-01T20:05:06.348Z,22.60
2022-10-01T20:08:05.149Z,22.60
2022-10-01T20:10:56.938Z,22.60
2022-10-01T20:13:50.497Z,22.60
2022-10-01T20:16:36.198Z,22.60
2022-10-01T20:19:19.664Z,22.60
2022-10-01T20:22:22.892Z,22.60
2022-10-01T20:25:02.889Z,22.60
2022-10-01T20:27:30.274Z,22.60
2022-10-01T20:30:14.233Z,22.60
2022-10-01T20:33:00.874Z,22.60
2022-10-01T20:35:40.458Z,22.60
2022-10-01T20:38:14.924Z,22.60
2022-10-01T20:41:09.107Z,22.60
2022-10-01T20:43:44.500Z,22.60
2022-10-01T20:46:38.126Z,22.60
2022-10-01T20:49:15.211Z,22.60
2022-10-01T20:51:53.252Z,22.60
2022-10-01T20:54:26.585Z,22.60
2022-10-01T20:56:59.823Z,22.50
2022-10-01T20:59:40.268Z,22.60
2022-10-01T21:02:42.645Z,22.60
2022-10-01T21:05:22.779Z,22.50
2022-10-01T21:08:04.475Z,22.50
2022-10-01T21:10:45.681Z,22.50
2022-10-01T21:13:22.302Z,22.50
2022-10-01T21:16:02.636Z,22.50
2022-10-01T21:18:59.785Z,22.60
2022-10-01T21:21:38.981Z,22.50
2022-10-01T21:24:17.506Z,22.50
2022-10-01T21:26:52.417Z,22.50
2022-10-01T21:29:37.698Z,22.50
2022-10-01T21:32:41.908Z,22.50
2022-10-01T21:35:24.017Z,22.50
2022-10-01T21:38:16.948Z,22.40
2022-10-01T21:40:57.907Z,22.50
2022-10-01T21:43:56.737Z,22.50
2022-10-01T21:46:23.452Z,22.40
2022-10-01T21:49:27.948Z,22.50
2022-10-01T21:52:10.790Z,22.50
2022-10-01T21:55:22.068Z,22.50
2022-10-01T21:57:57.708Z,22.50
2022-10-01T22:00:28.758Z,22.50
2022-10-01T22:03:14.212Z,22.50
2022-10-01T22:06:11.803Z,22.50
2022-10-01T22:08:59.633Z,22.50
2022-10-01T22:11:35.069Z,22.50
2022-10-01T22:14:05.991Z,22.50
2022-10-01T22:16:47.032Z,22.50
2022-10-01T22:19:19.258Z,22.40
2022-10-01T22:21:50.121Z,22.40
2022-10-01T22:24:26.721Z,22.50
2022-10-01T22:27:11.320Z,22.50
2022-10-01T22:29:44.614Z,22.40
2022-10-01T22:32:16.227Z,22.40
2022-10-01T22:34:47.944Z,22.40
2022-10-01T22:37:27.811Z,22.40
2022-10-01T22:40:20.543Z,22.40
2022-10-01T22:43:00.776Z,22.40
2022-10-01T22:45:45.563Z,22.40
2022-10-01T22:48:50.578Z,22.40
2022-10-01T22:51:23.441Z,22.40
2022-10-01T22:54:18.103Z,22.40
2022-10-01T22:57:21.948Z,22.40
2022-10-01T23:00:03.713Z,22.40
2022-10-01T23:02:38.881Z,22.40
2022-10-01T23:05:40.933Z,22.40
2022-10-01T23:08:16.520Z,22.40
2022-10-01T23:10:58.334Z,22.40
2022-10-01T23:13:36.351Z,22.30
2022-10-01T23:16:20.443Z,22.40
2022-10-01T23:18:59.441Z,22.40
2022-10-01T23:21:54.515Z,22.40
2022-10-01T23:24:31.802Z,22.40
2022-10-01T23:27:01.355Z,22.40
2022-10-01T23:29:48.339Z,22.40
2022-10-01T23:32:57.161Z,22.40
2022-10-01T23:35:34.800Z,22.40
2022-10-01T23:38:29.536Z,22.40
2022-10-01T23:41:10.219Z,22.40
2022-10-01T23:43:46.825Z,22.40
2022-10-01T23:46:22.738Z,22.30
2022-10-01T23:49:12.450Z,22.30
2022-10-01T23:52:02.790Z,22.40
2022-10-01T23:54:43.376Z,22.40
2022-10-01T23:57:18.773Z,22.30
